sensor_id;sensor_type;location;lat;lon;timestamp;P1;durP1;ratioP1;P2;durP2;ratioP2
57655;SDS011;43482;53.334;6.744;2022-08-24T00:01:06;80.35;;;76.53;;
57655;SDS011;43482;53.334;6.744;2022-08-24T00:03:33;80.28;;;76.30;;
57655;SDS011;43482;53.334;6.744;2022-08-24T00:05:59;80.57;;;76.15;;
57655;SDS011;43482;53.334;6.744;2022-08-24T00:08:25;88.63;;;84.15;;
57655;SDS011;43482;53.334;6.744;2022-08-24T00:10:50;98.82;;;94.32;;
57655;SDS011;43482;53.334;6.744;2022-08-24T00:13:16;100.35;;;95.55;;
57655;SDS011;43482;53.334;6.744;2022-08-24T00:15:43;90.22;;;86.13;;
57655;SDS011;43482;53.334;6.744;2022-08-24T00:18:08;94.95;;;90.43;;
57655;SDS011;43482;53.334;6.744;2022-08-24T00:20:34;97.00;;;92.03;;
57655;SDS011;43482;53.334;6.744;2022-08-24T00:23:00;93.18;;;88.55;;
57655;SDS011;43482;53.334;6.744;2022-08-24T00:25:26;97.45;;;92.68;;
57655;SDS011;43482;53.334;6.744;2022-08-24T00:27:51;91.38;;;87.07;;
57655;SDS011;43482;53.334;6.744;2022-08-24T00:30:18;92.13;;;87.40;;
57655;SDS011;43482;53.334;6.744;2022-08-24T00:32:45;87.22;;;83.05;;
57655;SDS011;43482;53.334;6.744;2022-08-24T00:35:12;86.55;;;82.45;;
57655;SDS011;43482;53.334;6.744;2022-08-24T00:37:38;91.18;;;86.88;;
57655;SDS011;43482;53.334;6.744;2022-08-24T00:40:04;81.78;;;77.82;;
57655;SDS011;43482;53.334;6.744;2022-08-24T00:42:36;78.97;;;75.07;;
57655;SDS011;43482;53.334;6.744;2022-08-24T00:45:04;77.15;;;73.35;;
57655;SDS011;43482;53.334;6.744;2022-08-24T00:47:37;89.40;;;84.55;;
57655;SDS011;43482;53.334;6.744;2022-08-24T00:50:07;83.70;;;79.65;;
57655;SDS011;43482;53.334;6.744;2022-08-24T00:52:48;74.63;;;70.80;;
57655;SDS011;43482;53.334;6.744;2022-08-24T00:55:19;73.95;;;70.32;;
57655;SDS011;43482;53.334;6.744;2022-08-24T00:57:51;76.32;;;72.55;;
57655;SDS011;43482;53.334;6.744;2022-08-24T01:00:23;75.43;;;71.75;;
57655;SDS011;43482;53.334;6.744;2022-08-24T01:02:52;72.47;;;68.53;;
57655;SDS011;43482;53.334;6.744;2022-08-24T01:05:23;77.47;;;73.55;;
57655;SDS011;43482;53.334;6.744;2022-08-24T01:07:49;72.38;;;68.70;;
57655;SDS011;43482;53.334;6.744;2022-08-24T01:10:15;91.47;;;86.82;;
57655;SDS011;43482;53.334;6.744;2022-08-24T01:12:44;99.22;;;93.85;;
57655;SDS011;43482;53.334;6.744;2022-08-24T01:15:13;120.28;;;113.65;;
57655;SDS011;43482;53.334;6.744;2022-08-24T01:17:40;119.63;;;113.35;;
57655;SDS011;43482;53.334;6.744;2022-08-24T01:20:24;123.10;;;116.47;;
57655;SDS011;43482;53.334;6.744;2022-08-24T01:22:56;122.68;;;116.47;;
57655;SDS011;43482;53.334;6.744;2022-08-24T01:25:30;120.10;;;113.95;;
57655;SDS011;43482;53.334;6.744;2022-08-24T01:27:58;122.90;;;116.38;;
57655;SDS011;43482;53.334;6.744;2022-08-24T01:32:54;105.00;;;99.78;;
57655;SDS011;43482;53.334;6.744;2022-08-24T01:35:21;104.28;;;98.85;;
57655;SDS011;43482;53.334;6.744;2022-08-24T01:37:47;106.80;;;101.32;;
57655;SDS011;43482;53.334;6.744;2022-08-24T01:40:13;110.63;;;104.72;;
57655;SDS011;43482;53.334;6.744;2022-08-24T01:42:38;109.45;;;103.80;;
57655;SDS011;43482;53.334;6.744;2022-08-24T01:45:04;107.47;;;102.43;;
57655;SDS011;43482;53.334;6.744;2022-08-24T01:47:30;89.00;;;84.53;;
57655;SDS011;43482;53.334;6.744;2022-08-24T01:49:56;90.18;;;85.45;;
57655;SDS011;43482;53.334;6.744;2022-08-24T01:52:23;86.05;;;81.72;;
57655;SDS011;43482;53.334;6.744;2022-08-24T01:54:50;72.18;;;68.50;;
57655;SDS011;43482;53.334;6.744;2022-08-24T01:57:15;73.78;;;70.20;;
57655;SDS011;43482;53.334;6.744;2022-08-24T01:59:41;69.53;;;65.88;;
57655;SDS011;43482;53.334;6.744;2022-08-24T02:02:08;74.88;;;70.88;;
57655;SDS011;43482;53.334;6.744;2022-08-24T02:04:38;72.82;;;68.90;;
57655;SDS011;43482;53.334;6.744;2022-08-24T02:07:04;77.43;;;73.00;;
57655;SDS011;43482;53.334;6.744;2022-08-24T02:09:30;89.80;;;84.90;;
57655;SDS011;43482;53.334;6.744;2022-08-24T02:11:55;99.25;;;94.10;;
57655;SDS011;43482;53.334;6.744;2022-08-24T02:14:21;109.82;;;103.88;;
57655;SDS011;43482;53.334;6.744;2022-08-24T02:16:46;115.78;;;109.50;;
57655;SDS011;43482;53.334;6.744;2022-08-24T02:19:12;117.22;;;110.68;;
57655;SDS011;43482;53.334;6.744;2022-08-24T02:21:37;125.30;;;118.95;;
57655;SDS011;43482;53.334;6.744;2022-08-24T02:24:03;124.70;;;118.40;;
57655;SDS011;43482;53.334;6.744;2022-08-24T02:26:29;123.18;;;117.05;;
57655;SDS011;43482;53.334;6.744;2022-08-24T02:28:55;118.75;;;112.50;;
57655;SDS011;43482;53.334;6.744;2022-08-24T02:31:20;114.32;;;108.53;;
57655;SDS011;43482;53.334;6.744;2022-08-24T02:33:46;112.53;;;106.88;;
57655;SDS011;43482;53.334;6.744;2022-08-24T02:36:12;103.47;;;98.45;;
57655;SDS011;43482;53.334;6.744;2022-08-24T02:38:39;94.00;;;89.40;;
57655;SDS011;43482;53.334;6.744;2022-08-24T02:41:05;87.50;;;83.07;;
57655;SDS011;43482;53.334;6.744;2022-08-24T02:43:30;91.30;;;86.85;;
57655;SDS011;43482;53.334;6.744;2022-08-24T02:45:56;91.05;;;86.57;;
57655;SDS011;43482;53.334;6.744;2022-08-24T02:48:22;86.85;;;82.20;;
57655;SDS011;43482;53.334;6.744;2022-08-24T02:50:48;97.80;;;92.63;;
57655;SDS011;43482;53.334;6.744;2022-08-24T02:53:15;91.45;;;86.97;;
57655;SDS011;43482;53.334;6.744;2022-08-24T02:55:43;84.97;;;80.57;;
57655;SDS011;43482;53.334;6.744;2022-08-24T02:58:09;86.50;;;82.22;;
57655;SDS011;43482;53.334;6.744;2022-08-24T03:00:36;87.65;;;83.10;;
57655;SDS011;43482;53.334;6.744;2022-08-24T03:03:03;93.63;;;88.63;;
57655;SDS011;43482;53.334;6.744;2022-08-24T03:05:30;91.60;;;86.90;;
57655;SDS011;43482;53.334;6.744;2022-08-24T03:07:56;89.40;;;85.00;;
57655;SDS011;43482;53.334;6.744;2022-08-24T03:10:21;87.38;;;82.75;;
57655;SDS011;43482;53.334;6.744;2022-08-24T03:12:48;85.93;;;81.53;;
57655;SDS011;43482;53.334;6.744;2022-08-24T03:15:14;92.25;;;87.78;;
57655;SDS011;43482;53.334;6.744;2022-08-24T03:17:40;85.50;;;81.50;;
57655;SDS011;43482;53.334;6.744;2022-08-24T03:20:08;92.28;;;87.95;;
57655;SDS011;43482;53.334;6.744;2022-08-24T03:22:36;91.97;;;87.50;;
57655;SDS011;43482;53.334;6.744;2022-08-24T03:25:03;95.13;;;90.78;;
57655;SDS011;43482;53.334;6.744;2022-08-24T03:27:29;96.00;;;91.78;;
57655;SDS011;43482;53.334;6.744;2022-08-24T03:29:54;98.22;;;93.60;;
57655;SDS011;43482;53.334;6.744;2022-08-24T03:32:20;105.20;;;100.03;;
57655;SDS011;43482;53.334;6.744;2022-08-24T03:34:45;97.25;;;92.60;;
57655;SDS011;43482;53.334;6.744;2022-08-24T03:37:11;96.45;;;91.85;;
57655;SDS011;43482;53.334;6.744;2022-08-24T03:39:37;96.70;;;92.45;;
57655;SDS011;43482;53.334;6.744;2022-08-24T03:42:02;85.00;;;81.15;;
57655;SDS011;43482;53.334;6.744;2022-08-24T03:44:28;89.75;;;85.40;;
57655;SDS011;43482;53.334;6.744;2022-08-24T03:46:53;85.28;;;81.35;;
57655;SDS011;43482;53.334;6.744;2022-08-24T03:49:19;98.63;;;93.85;;
57655;SDS011;43482;53.334;6.744;2022-08-24T03:51:45;94.38;;;90.00;;
57655;SDS011;43482;53.334;6.744;2022-08-24T03:54:10;96.15;;;91.72;;
57655;SDS011;43482;53.334;6.744;2022-08-24T03:56:36;97.10;;;92.50;;
57655;SDS011;43482;53.334;6.744;2022-08-24T03:59:02;98.82;;;94.45;;
57655;SDS011;43482;53.334;6.744;2022-08-24T04:01:29;97.00;;;92.63;;
57655;SDS011;43482;53.334;6.744;2022-08-24T04:03:54;94.63;;;90.05;;
57655;SDS011;43482;53.334;6.744;2022-08-24T04:06:20;96.75;;;92.10;;
57655;SDS011;43482;53.334;6.744;2022-08-24T04:08:46;86.28;;;82.13;;
57655;SDS011;43482;53.334;6.744;2022-08-24T04:11:14;89.32;;;85.15;;
57655;SDS011;43482;53.334;6.744;2022-08-24T04:13:42;89.38;;;85.40;;
57655;SDS011;43482;53.334;6.744;2022-08-24T04:16:10;99.80;;;94.85;;
57655;SDS011;43482;53.334;6.744;2022-08-24T04:18:37;88.38;;;84.03;;
57655;SDS011;43482;53.334;6.744;2022-08-24T04:21:03;85.85;;;81.88;;
57655;SDS011;43482;53.334;6.744;2022-08-24T04:23:29;91.78;;;87.60;;
57655;SDS011;43482;53.334;6.744;2022-08-24T04:26:00;79.40;;;75.63;;
57655;SDS011;43482;53.334;6.744;2022-08-24T04:28:28;88.38;;;83.82;;
57655;SDS011;43482;53.334;6.744;2022-08-24T04:30:55;94.70;;;89.70;;
57655;SDS011;43482;53.334;6.744;2022-08-24T04:33:21;92.60;;;88.10;;
57655;SDS011;43482;53.334;6.744;2022-08-24T04:35:47;82.30;;;78.22;;
57655;SDS011;43482;53.334;6.744;2022-08-24T04:38:14;90.65;;;86.47;;
57655;SDS011;43482;53.334;6.744;2022-08-24T04:40:41;83.97;;;79.70;;
57655;SDS011;43482;53.334;6.744;2022-08-24T04:43:09;81.18;;;77.47;;
57655;SDS011;43482;53.334;6.744;2022-08-24T04:45:38;77.63;;;73.70;;
57655;SDS011;43482;53.334;6.744;2022-08-24T04:48:07;87.15;;;82.53;;
57655;SDS011;43482;53.334;6.744;2022-08-24T04:50:34;84.18;;;80.03;;
57655;SDS011;43482;53.334;6.744;2022-08-24T04:53:01;79.72;;;75.97;;
57655;SDS011;43482;53.334;6.744;2022-08-24T04:55:28;84.88;;;80.88;;
57655;SDS011;43482;53.334;6.744;2022-08-24T04:57:53;87.78;;;83.30;;
57655;SDS011;43482;53.334;6.744;2022-08-24T05:00:19;81.60;;;77.53;;
57655;SDS011;43482;53.334;6.744;2022-08-24T05:02:44;79.45;;;75.55;;
57655;SDS011;43482;53.334;6.744;2022-08-24T05:05:10;83.60;;;79.32;;
57655;SDS011;43482;53.334;6.744;2022-08-24T05:07:36;79.88;;;76.07;;
57655;SDS011;43482;53.334;6.744;2022-08-24T05:10:02;83.10;;;79.00;;
57655;SDS011;43482;53.334;6.744;2022-08-24T05:12:29;83.97;;;79.85;;
57655;SDS011;43482;53.334;6.744;2022-08-24T05:14:56;85.30;;;81.32;;
57655;SDS011;43482;53.334;6.744;2022-08-24T05:17:21;81.80;;;77.43;;
57655;SDS011;43482;53.334;6.744;2022-08-24T05:19:47;94.40;;;89.70;;
57655;SDS011;43482;53.334;6.744;2022-08-24T05:22:14;91.75;;;87.47;;
57655;SDS011;43482;53.334;6.744;2022-08-24T05:24:39;97.22;;;92.82;;
57655;SDS011;43482;53.334;6.744;2022-08-24T05:27:05;90.13;;;85.70;;
57655;SDS011;43482;53.334;6.744;2022-08-24T05:29:30;95.55;;;90.68;;
57655;SDS011;43482;53.334;6.744;2022-08-24T05:31:59;92.55;;;88.18;;
57655;SDS011;43482;53.334;6.744;2022-08-24T05:34:25;95.82;;;91.25;;
57655;SDS011;43482;53.334;6.744;2022-08-24T05:36:51;89.68;;;85.35;;
57655;SDS011;43482;53.334;6.744;2022-08-24T05:39:16;84.93;;;81.10;;
57655;SDS011;43482;53.334;6.744;2022-08-24T05:41:42;82.53;;;78.78;;
57655;SDS011;43482;53.334;6.744;2022-08-24T05:44:10;81.82;;;78.18;;
57655;SDS011;43482;53.334;6.744;2022-08-24T05:46:36;88.13;;;83.88;;
57655;SDS011;43482;53.334;6.744;2022-08-24T05:49:02;90.03;;;85.78;;
57655;SDS011;43482;53.334;6.744;2022-08-24T05:51:28;99.22;;;94.05;;
57655;SDS011;43482;53.334;6.744;2022-08-24T05:53:54;109.18;;;103.88;;
57655;SDS011;43482;53.334;6.744;2022-08-24T05:56:20;106.43;;;101.22;;
57655;SDS011;43482;53.334;6.744;2022-08-24T05:58:46;104.30;;;99.07;;
57655;SDS011;43482;53.334;6.744;2022-08-24T06:01:16;106.97;;;101.75;;
57655;SDS011;43482;53.334;6.744;2022-08-24T06:03:45;103.65;;;98.47;;
57655;SDS011;43482;53.334;6.744;2022-08-24T06:06:11;116.32;;;110.55;;
57655;SDS011;43482;53.334;6.744;2022-08-24T06:08:38;118.40;;;112.53;;
57655;SDS011;43482;53.334;6.744;2022-08-24T06:11:04;129.55;;;122.63;;
57655;SDS011;43482;53.334;6.744;2022-08-24T06:13:30;133.55;;;126.78;;
57655;SDS011;43482;53.334;6.744;2022-08-24T06:16:04;137.98;;;131.30;;
57655;SDS011;43482;53.334;6.744;2022-08-24T06:18:32;129.57;;;123.13;;
57655;SDS011;43482;53.334;6.744;2022-08-24T06:20:58;131.07;;;124.43;;
57655;SDS011;43482;53.334;6.744;2022-08-24T06:23:28;120.97;;;115.00;;
57655;SDS011;43482;53.334;6.744;2022-08-24T06:25:53;119.43;;;112.82;;
57655;SDS011;43482;53.334;6.744;2022-08-24T06:28:40;114.68;;;108.35;;
57655;SDS011;43482;53.334;6.744;2022-08-24T06:31:06;122.75;;;116.35;;
57655;SDS011;43482;53.334;6.744;2022-08-24T06:33:32;126.28;;;118.90;;
57655;SDS011;43482;53.334;6.744;2022-08-24T06:35:57;120.80;;;113.95;;
57655;SDS011;43482;53.334;6.744;2022-08-24T06:38:23;121.15;;;114.30;;
57655;SDS011;43482;53.334;6.744;2022-08-24T06:40:48;124.43;;;117.32;;
57655;SDS011;43482;53.334;6.744;2022-08-24T06:43:14;120.03;;;113.55;;
57655;SDS011;43482;53.334;6.744;2022-08-24T06:45:40;118.68;;;112.03;;
57655;SDS011;43482;53.334;6.744;2022-08-24T06:48:06;118.05;;;111.45;;
57655;SDS011;43482;53.334;6.744;2022-08-24T06:50:31;116.53;;;110.28;;
57655;SDS011;43482;53.334;6.744;2022-08-24T06:52:58;109.95;;;104.22;;
57655;SDS011;43482;53.334;6.744;2022-08-24T06:55:24;109.57;;;103.40;;
57655;SDS011;43482;53.334;6.744;2022-08-24T06:57:50;108.63;;;103.10;;
57655;SDS011;43482;53.334;6.744;2022-08-24T07:00:15;106.50;;;100.70;;
57655;SDS011;43482;53.334;6.744;2022-08-24T07:02:41;114.50;;;108.22;;
57655;SDS011;43482;53.334;6.744;2022-08-24T07:05:07;119.82;;;113.57;;
57655;SDS011;43482;53.334;6.744;2022-08-24T07:07:32;108.82;;;103.10;;
57655;SDS011;43482;53.334;6.744;2022-08-24T07:09:58;84.22;;;79.82;;
57655;SDS011;43482;53.334;6.744;2022-08-24T07:12:24;103.38;;;97.53;;
57655;SDS011;43482;53.334;6.744;2022-08-24T07:14:51;89.75;;;85.25;;
57655;SDS011;43482;53.334;6.744;2022-08-24T07:17:16;84.22;;;79.72;;
57655;SDS011;43482;53.334;6.744;2022-08-24T07:19:43;74.32;;;70.53;;
57655;SDS011;43482;53.334;6.744;2022-08-24T07:22:09;74.15;;;70.65;;
57655;SDS011;43482;53.334;6.744;2022-08-24T07:24:35;56.78;;;54.17;;
57655;SDS011;43482;53.334;6.744;2022-08-24T07:27:01;53.75;;;50.97;;
57655;SDS011;43482;53.334;6.744;2022-08-24T07:29:27;49.03;;;46.58;;
57655;SDS011;43482;53.334;6.744;2022-08-24T07:31:52;47.83;;;45.30;;
57655;SDS011;43482;53.334;6.744;2022-08-24T07:34:18;35.45;;;33.92;;
57655;SDS011;43482;53.334;6.744;2022-08-24T07:36:43;38.28;;;36.47;;
57655;SDS011;43482;53.334;6.744;2022-08-24T07:39:08;36.40;;;34.60;;
57655;SDS011;43482;53.334;6.744;2022-08-24T07:41:38;33.30;;;31.60;;
57655;SDS011;43482;53.334;6.744;2022-08-24T07:44:07;40.92;;;38.92;;
57655;SDS011;43482;53.334;6.744;2022-08-24T07:46:33;54.00;;;51.65;;
57655;SDS011;43482;53.334;6.744;2022-08-24T07:48:59;58.35;;;55.92;;
57655;SDS011;43482;53.334;6.744;2022-08-24T07:51:24;46.88;;;44.88;;
57655;SDS011;43482;53.334;6.744;2022-08-24T07:53:51;45.30;;;43.20;;
57655;SDS011;43482;53.334;6.744;2022-08-24T07:56:17;44.28;;;42.38;;
57655;SDS011;43482;53.334;6.744;2022-08-24T07:58:42;44.47;;;42.58;;
57655;SDS011;43482;53.334;6.744;2022-08-24T08:01:08;49.88;;;47.85;;
57655;SDS011;43482;53.334;6.744;2022-08-24T08:03:34;47.85;;;45.90;;
57655;SDS011;43482;53.334;6.744;2022-08-24T08:06:02;42.22;;;40.50;;
57655;SDS011;43482;53.334;6.744;2022-08-24T08:08:30;49.08;;;46.88;;
57655;SDS011;43482;53.334;6.744;2022-08-24T08:10:57;43.17;;;41.38;;
57655;SDS011;43482;53.334;6.744;2022-08-24T08:13:22;47.35;;;45.30;;
57655;SDS011;43482;53.334;6.744;2022-08-24T08:15:48;49.63;;;47.42;;
57655;SDS011;43482;53.334;6.744;2022-08-24T08:18:14;46.95;;;45.05;;
57655;SDS011;43482;53.334;6.744;2022-08-24T08:20:40;48.78;;;46.78;;
57655;SDS011;43482;53.334;6.744;2022-08-24T08:23:06;47.55;;;45.53;;
57655;SDS011;43482;53.334;6.744;2022-08-24T08:25:52;43.88;;;42.08;;
57655;SDS011;43482;53.334;6.744;2022-08-24T08:28:19;41.50;;;39.80;;
57655;SDS011;43482;53.334;6.744;2022-08-24T08:30:45;40.78;;;38.88;;
57655;SDS011;43482;53.334;6.744;2022-08-24T08:33:11;42.70;;;41.00;;
57655;SDS011;43482;53.334;6.744;2022-08-24T08:35:38;40.15;;;38.55;;
57655;SDS011;43482;53.334;6.744;2022-08-24T08:38:04;41.55;;;39.65;;
57655;SDS011;43482;53.334;6.744;2022-08-24T08:43:12;39.10;;;37.50;;
57655;SDS011;43482;53.334;6.744;2022-08-24T08:46:08;37.95;;;36.38;;
57655;SDS011;43482;53.334;6.744;2022-08-24T09:07:45;41.25;;;39.42;;
57655;SDS011;43482;53.334;6.744;2022-08-24T09:10:35;44.05;;;42.15;;
57655;SDS011;43482;53.334;6.744;2022-08-24T09:26:24;36.47;;;34.80;;
57655;SDS011;43482;53.334;6.744;2022-08-24T09:35:06;36.78;;;35.17;;
57655;SDS011;43482;53.334;6.744;2022-08-24T09:46:31;35.20;;;33.67;;
57655;SDS011;43482;53.334;6.744;2022-08-24T09:57:47;41.03;;;39.33;;
57655;SDS011;43482;53.334;6.744;2022-08-24T10:03:25;37.38;;;35.83;;
57655;SDS011;43482;53.334;6.744;2022-08-24T10:11:35;40.88;;;38.78;;
57655;SDS011;43482;53.334;6.744;2022-08-24T10:14:08;36.40;;;34.90;;
57655;SDS011;43482;53.334;6.744;2022-08-24T10:16:53;36.97;;;35.40;;
57655;SDS011;43482;53.334;6.744;2022-08-24T10:30:26;39.85;;;38.13;;
57655;SDS011;43482;53.334;6.744;2022-08-24T10:46:59;38.97;;;37.05;;
57655;SDS011;43482;53.334;6.744;2022-08-24T10:54:47;37.10;;;35.60;;
57655;SDS011;43482;53.334;6.744;2022-08-24T11:00:06;37.10;;;35.50;;
57655;SDS011;43482;53.334;6.744;2022-08-24T11:02:41;34.45;;;33.05;;
57655;SDS011;43482;53.334;6.744;2022-08-24T11:05:10;35.90;;;34.40;;
57655;SDS011;43482;53.334;6.744;2022-08-24T11:07:53;40.55;;;38.88;;
57655;SDS011;43482;53.334;6.744;2022-08-24T11:10:25;36.58;;;35.15;;
57655;SDS011;43482;53.334;6.744;2022-08-24T11:13:12;37.75;;;36.25;;
57655;SDS011;43482;53.334;6.744;2022-08-24T11:15:48;38.38;;;36.75;;
57655;SDS011;43482;53.334;6.744;2022-08-24T11:18:22;37.80;;;36.28;;
57655;SDS011;43482;53.334;6.744;2022-08-24T11:20:48;38.70;;;37.15;;
57655;SDS011;43482;53.334;6.744;2022-08-24T11:23:23;41.42;;;39.75;;
57655;SDS011;43482;53.334;6.744;2022-08-24T11:28:36;37.22;;;35.72;;
57655;SDS011;43482;53.334;6.744;2022-08-24T11:31:08;38.72;;;37.13;;
57655;SDS011;43482;53.334;6.744;2022-08-24T11:33:50;39.97;;;38.38;;
57655;SDS011;43482;53.334;6.744;2022-08-24T11:36:24;38.03;;;36.40;;
57655;SDS011;43482;53.334;6.744;2022-08-24T11:39:12;34.40;;;33.08;;
57655;SDS011;43482;53.334;6.744;2022-08-24T11:41:47;37.60;;;36.05;;
57655;SDS011;43482;53.334;6.744;2022-08-24T11:44:39;37.20;;;35.78;;
57655;SDS011;43482;53.334;6.744;2022-08-24T11:47:31;38.25;;;36.75;;
57655;SDS011;43482;53.334;6.744;2022-08-24T12:00:58;35.90;;;34.50;;
57655;SDS011;43482;53.334;6.744;2022-08-24T12:09:45;39.22;;;37.58;;
57655;SDS011;43482;53.334;6.744;2022-08-24T12:14:56;34.28;;;32.92;;
57655;SDS011;43482;53.334;6.744;2022-08-24T12:17:34;32.10;;;30.85;;
57655;SDS011;43482;53.334;6.744;2022-08-24T12:20:17;32.85;;;31.55;;
57655;SDS011;43482;53.334;6.744;2022-08-24T12:22:51;28.45;;;27.33;;
57655;SDS011;43482;53.334;6.744;2022-08-24T12:25:20;27.93;;;26.73;;
57655;SDS011;43482;53.334;6.744;2022-08-24T12:28:04;29.55;;;28.35;;
57655;SDS011;43482;53.334;6.744;2022-08-24T12:30:31;37.13;;;35.55;;
57655;SDS011;43482;53.334;6.744;2022-08-24T12:32:57;40.25;;;38.47;;
57655;SDS011;43482;53.334;6.744;2022-08-24T12:35:29;36.35;;;34.85;;
57655;SDS011;43482;53.334;6.744;2022-08-24T12:41:02;37.33;;;35.55;;
57655;SDS011;43482;53.334;6.744;2022-08-24T12:43:49;38.67;;;37.15;;
57655;SDS011;43482;53.334;6.744;2022-08-24T12:46:22;33.97;;;32.65;;
57655;SDS011;43482;53.334;6.744;2022-08-24T12:51:22;34.33;;;32.92;;
57655;SDS011;43482;53.334;6.744;2022-08-24T12:59:44;37.50;;;35.90;;
57655;SDS011;43482;53.334;6.744;2022-08-24T13:04:42;35.67;;;34.17;;
57655;SDS011;43482;53.334;6.744;2022-08-24T13:30:55;35.97;;;34.38;;
57655;SDS011;43482;53.334;6.744;2022-08-24T13:44:41;34.75;;;33.28;;
57655;SDS011;43482;53.334;6.744;2022-08-24T13:47:21;33.40;;;31.60;;
57655;SDS011;43482;53.334;6.744;2022-08-24T14:00:31;60.78;;;57.83;;
57655;SDS011;43482;53.334;6.744;2022-08-24T14:03:18;60.67;;;58.08;;
57655;SDS011;43482;53.334;6.744;2022-08-24T14:19:44;69.90;;;66.88;;
57655;SDS011;43482;53.334;6.744;2022-08-24T14:22:22;70.65;;;67.85;;
57655;SDS011;43482;53.334;6.744;2022-08-24T14:25:03;69.22;;;66.53;;
57655;SDS011;43482;53.334;6.744;2022-08-24T14:32:45;59.25;;;56.88;;
57655;SDS011;43482;53.334;6.744;2022-08-24T14:38:36;59.00;;;56.67;;
57655;SDS011;43482;53.334;6.744;2022-08-24T14:41:15;65.30;;;62.72;;
57655;SDS011;43482;53.334;6.744;2022-08-24T14:47:03;64.57;;;61.95;;
57655;SDS011;43482;53.334;6.744;2022-08-24T14:52:50;62.58;;;59.92;;
57655;SDS011;43482;53.334;6.744;2022-08-24T15:01:47;67.07;;;64.28;;
57655;SDS011;43482;53.334;6.744;2022-08-24T15:04:23;59.78;;;57.33;;
57655;SDS011;43482;53.334;6.744;2022-08-24T15:07:44;56.50;;;54.13;;
57655;SDS011;43482;53.334;6.744;2022-08-24T15:10:01;63.03;;;60.38;;
57655;SDS011;43482;53.334;6.744;2022-08-24T15:12:41;67.32;;;64.50;;
57655;SDS011;43482;53.334;6.744;2022-08-24T15:17:58;60.70;;;58.15;;
57655;SDS011;43482;53.334;6.744;2022-08-24T15:20:51;53.55;;;51.33;;
57655;SDS011;43482;53.334;6.744;2022-08-24T15:26:11;56.63;;;54.20;;
57655;SDS011;43482;53.334;6.744;2022-08-24T15:28:50;59.03;;;56.63;;
57655;SDS011;43482;53.334;6.744;2022-08-24T15:31:18;53.10;;;50.92;;
57655;SDS011;43482;53.334;6.744;2022-08-24T15:36:22;54.75;;;52.42;;
57655;SDS011;43482;53.334;6.744;2022-08-24T15:38:48;49.75;;;47.63;;
57655;SDS011;43482;53.334;6.744;2022-08-24T15:41:16;50.85;;;48.83;;
57655;SDS011;43482;53.334;6.744;2022-08-24T15:44:09;48.17;;;46.28;;
57655;SDS011;43482;53.334;6.744;2022-08-24T15:46:43;50.20;;;48.15;;
57655;SDS011;43482;53.334;6.744;2022-08-24T15:51:50;50.05;;;47.90;;
57655;SDS011;43482;53.334;6.744;2022-08-24T15:56:47;53.40;;;51.33;;
57655;SDS011;43482;53.334;6.744;2022-08-24T15:59:29;49.75;;;47.42;;
57655;SDS011;43482;53.334;6.744;2022-08-24T16:04:51;48.80;;;46.90;;
57655;SDS011;43482;53.334;6.744;2022-08-24T16:07:56;52.95;;;50.90;;
57655;SDS011;43482;53.334;6.744;2022-08-24T16:13:18;53.30;;;51.05;;
57655;SDS011;43482;53.334;6.744;2022-08-24T16:18:53;50.58;;;48.50;;
57655;SDS011;43482;53.334;6.744;2022-08-24T16:24:02;49.17;;;47.25;;
57655;SDS011;43482;53.334;6.744;2022-08-24T16:26:29;50.08;;;48.08;;
57655;SDS011;43482;53.334;6.744;2022-08-24T16:28:58;49.72;;;47.75;;
57655;SDS011;43482;53.334;6.744;2022-08-24T16:31:43;52.40;;;50.05;;
57655;SDS011;43482;53.334;6.744;2022-08-24T16:34:19;54.63;;;52.35;;
57655;SDS011;43482;53.334;6.744;2022-08-24T16:36:52;49.95;;;47.63;;
57655;SDS011;43482;53.334;6.744;2022-08-24T16:39:18;55.05;;;52.58;;
57655;SDS011;43482;53.334;6.744;2022-08-24T16:41:43;54.97;;;52.78;;
57655;SDS011;43482;53.334;6.744;2022-08-24T16:44:09;50.45;;;48.38;;
57655;SDS011;43482;53.334;6.744;2022-08-24T16:46:36;50.38;;;48.42;;
57655;SDS011;43482;53.334;6.744;2022-08-24T16:49:02;52.92;;;50.72;;
57655;SDS011;43482;53.334;6.744;2022-08-24T16:51:28;53.75;;;51.55;;
57655;SDS011;43482;53.334;6.744;2022-08-24T16:53:53;49.15;;;47.10;;
57655;SDS011;43482;53.334;6.744;2022-08-24T16:56:19;55.30;;;52.75;;
57655;SDS011;43482;53.334;6.744;2022-08-24T16:58:45;49.25;;;47.30;;
57655;SDS011;43482;53.334;6.744;2022-08-24T17:01:11;53.90;;;51.58;;
57655;SDS011;43482;53.334;6.744;2022-08-24T17:03:38;48.80;;;46.75;;
57655;SDS011;43482;53.334;6.744;2022-08-24T17:06:03;54.67;;;52.33;;
57655;SDS011;43482;53.334;6.744;2022-08-24T17:08:29;53.22;;;50.88;;
57655;SDS011;43482;53.334;6.744;2022-08-24T17:10:55;57.88;;;55.22;;
57655;SDS011;43482;53.334;6.744;2022-08-24T17:13:20;53.78;;;51.58;;
57655;SDS011;43482;53.334;6.744;2022-08-24T17:15:46;54.13;;;51.97;;
57655;SDS011;43482;53.334;6.744;2022-08-24T17:18:12;60.63;;;58.13;;
57655;SDS011;43482;53.334;6.744;2022-08-24T17:20:38;58.38;;;55.80;;
57655;SDS011;43482;53.334;6.744;2022-08-24T17:23:05;53.72;;;51.55;;
57655;SDS011;43482;53.334;6.744;2022-08-24T17:25:32;57.63;;;55.20;;
57655;SDS011;43482;53.334;6.744;2022-08-24T17:27:58;61.50;;;58.90;;
57655;SDS011;43482;53.334;6.744;2022-08-24T17:30:24;58.17;;;55.80;;
57655;SDS011;43482;53.334;6.744;2022-08-24T17:32:50;55.85;;;53.50;;
57655;SDS011;43482;53.334;6.744;2022-08-24T17:35:17;56.08;;;53.58;;
57655;SDS011;43482;53.334;6.744;2022-08-24T17:37:44;54.42;;;52.22;;
57655;SDS011;43482;53.334;6.744;2022-08-24T17:40:11;57.53;;;55.22;;
57655;SDS011;43482;53.334;6.744;2022-08-24T17:42:39;63.55;;;60.88;;
57655;SDS011;43482;53.334;6.744;2022-08-24T17:45:05;56.65;;;54.38;;
57655;SDS011;43482;53.334;6.744;2022-08-24T17:47:31;55.92;;;53.63;;
57655;SDS011;43482;53.334;6.744;2022-08-24T17:49:57;59.83;;;57.45;;
57655;SDS011;43482;53.334;6.744;2022-08-24T17:52:24;59.63;;;56.90;;
57655;SDS011;43482;53.334;6.744;2022-08-24T17:54:49;53.72;;;51.42;;
57655;SDS011;43482;53.334;6.744;2022-08-24T17:57:14;58.92;;;56.10;;
57655;SDS011;43482;53.334;6.744;2022-08-24T17:59:40;52.10;;;49.88;;
57655;SDS011;43482;53.334;6.744;2022-08-24T18:02:08;55.05;;;52.75;;
57655;SDS011;43482;53.334;6.744;2022-08-24T18:07:03;71.68;;;68.70;;
57655;SDS011;43482;53.334;6.744;2022-08-24T18:09:32;50.53;;;48.38;;
57655;SDS011;43482;53.334;6.744;2022-08-24T18:12:01;58.83;;;56.22;;
57655;SDS011;43482;53.334;6.744;2022-08-24T18:14:28;59.92;;;57.38;;
57655;SDS011;43482;53.334;6.744;2022-08-24T18:16:54;52.30;;;50.00;;
57655;SDS011;43482;53.334;6.744;2022-08-24T18:19:22;58.83;;;56.22;;
57655;SDS011;43482;53.334;6.744;2022-08-24T18:21:51;57.60;;;55.15;;
57655;SDS011;43482;53.334;6.744;2022-08-24T18:24:17;63.78;;;61.03;;
57655;SDS011;43482;53.334;6.744;2022-08-24T18:26:43;58.13;;;55.55;;
57655;SDS011;43482;53.334;6.744;2022-08-24T18:29:11;62.15;;;59.28;;
57655;SDS011;43482;53.334;6.744;2022-08-24T18:31:39;59.17;;;56.70;;
57655;SDS011;43482;53.334;6.744;2022-08-24T18:34:04;60.75;;;58.20;;
57655;SDS011;43482;53.334;6.744;2022-08-24T18:36:30;59.83;;;57.17;;